Broken Arrow, OK (74012)

7:59 AM CDT on August 05, 2015 (GMT -0500)
APRSWXNET | | Change Station
CLOSE
Current Station
Personal Weather Station
Location: Broken Arrow, OK
Elevation: 725 ft
Nearby Weather Stations

Elev 725 ft 36.04 °N, 95.82 °W | Updated 26 minutes ago

Partly Cloudy
Partly Cloudy
75 °F
Feels Like 74 °F
N
0
Wind Variable Wind from SW
Gusts 2.0 mph

Today
High -- | Low -- °F
--% Chance of Precip.
Yesterday
High -- | Low -- °F
Precip. -- in
6:33 AM 8:24 PM
Waning Gibbous, 67% visible
Pressure 29.90 in
Visibility 9.0 miles
Clouds Clear
Heat Index 74 °F
Dew Point 72 °F
Humidity 89%
Rainfall in
Snow Depth Not available.
UV 1 out of 12
Pollen 3.30 out of 12
Air Quality Not available.
Flu Activity Not available.
METAR KRVS 051253Z 00000KT 9SM CLR 25/22 A2989 RMK AO2 SLP124 T02500217

More Conditions Fewer Conditions

Pressure 29.90 in
Visibility 9.0 miles
Clouds Clear
Heat Index 74 °F
Dew Point 72 °F
Humidity 89%
Rainfall in
Snow Depth Not available.
UV 1 out of 12
Pollen 3.30 out of 12
Air Quality Not available.
Flu Activity Not available.
METAR KRVS 051253Z 00000KT 9SM CLR 25/22 A2989 RMK AO2 SLP124 T02500217

More Conditions Fewer Conditions

Nowcast | as of 6:05 am CDT on August 5, 2015

At 6:05 am...National Weather Service Doppler radar detected widely scattered showers and thunderstorms over Craig and Ottawa counties ...Moving east at 20 mph. Through 7:00 am...widely scattered showers and thunderstorms will continue over Craig and Ottawa counties. Brief heavy rain and dangerous lightning will be possible with these storms. Additional showers and thunderstorms will move into far northeast Oklahoma between 7 and 8 am. Some of these storms could be severe near the Oklahoma...Kansas state line with quarter size hail and damaging winds.

×

10-Day Weather Forecast

×

Almanac

Astronomy

Aug. 05, 2015 Rise Set
Actual Time
Civil Twilight
Nautical Twilight
Astronomical Twilight
Moon
Length of Visible Light
Length of Day
Tomorrow will be .
, % of the Moon is Illuminated

Today's Extremes

State Highs State Lows

Community

WunderPhotos

Upload Photos

1,844,175 photos uploaded!

WunderBlogs® & News

Nearby

Air Quality

  Air Quality AQ Index Pollutant
Not available.

Snow Depth

Station Depth Elevation

Earthquake Activity

City Distance Mag. Time & Date
Minimum magnitude displayed is 2.5.

Coastal Water Temperatures

Place Temperature

Stations

Nearby Weather Stations

Station Location Temp. Windchill Dew Point Humidity Wind Precip. Elev Updated Type